createdAt,value
2019-02-25T00:01:40.036Z,-0.37
2019-02-25T00:03:40.281Z,-0.30
2019-02-25T00:05:39.953Z,-0.39
2019-02-25T00:07:39.968Z,-0.27
2019-02-25T00:09:40.186Z,-0.35
2019-02-25T00:11:39.994Z,-0.37
2019-02-25T00:13:40.009Z,-0.27
2019-02-25T00:15:40.523Z,-0.38
2019-02-25T00:17:40.018Z,-0.43
2019-02-25T00:19:40.036Z,-0.48
2019-02-25T00:21:39.989Z,-0.38
2019-02-25T00:23:40.159Z,-0.59
2019-02-25T00:25:39.998Z,-0.62
2019-02-25T00:27:40.182Z,-0.64
2019-02-25T00:29:40.200Z,-0.58
2019-02-25T00:31:40.041Z,-0.66
2019-02-25T00:33:40.266Z,-0.76
2019-02-25T00:35:40.025Z,-0.82
2019-02-25T00:37:39.977Z,-0.89
2019-02-25T00:39:40.153Z,-0.89
2019-02-25T00:41:41.122Z,-0.85
2019-02-25T00:43:40.114Z,-0.89
2019-02-25T00:45:39.968Z,-0.73
2019-02-25T00:47:40.191Z,-0.81
2019-02-25T00:49:40.202Z,-0.92
2019-02-25T00:51:40.118Z,-0.92
2019-02-25T00:53:40.232Z,-0.78
2019-02-25T00:55:39.990Z,-0.87
2019-02-25T00:57:40.256Z,-0.97
2019-02-25T00:59:40.264Z,-0.87
2019-02-25T01:01:40.480Z,-0.90
2019-02-25T01:03:40.112Z,-0.92
2019-02-25T01:05:40.089Z,-1.02
2019-02-25T01:07:40.109Z,-1.22
2019-02-25T01:09:40.280Z,-1.18
2019-02-25T01:11:40.338Z,-1.20
2019-02-25T01:13:40.233Z,-1.12
2019-02-25T01:15:40.337Z,-1.15
2019-02-25T01:17:40.264Z,-1.15
2019-02-25T01:19:40.173Z,-1.23
2019-02-25T01:21:40.288Z,-1.35
2019-02-25T01:23:40.299Z,-1.29
2019-02-25T01:25:40.383Z,-1.33
2019-02-25T01:27:40.321Z,-1.38
2019-02-25T01:29:40.042Z,-1.31
2019-02-25T01:31:40.042Z,-1.32
2019-02-25T01:33:40.180Z,-1.28
2019-02-25T01:35:40.287Z,-1.34
2019-02-25T01:37:40.298Z,-1.15
2019-02-25T01:39:40.397Z,-1.14
2019-02-25T01:41:40.609Z,-1.07
2019-02-25T01:43:40.204Z,-1.07
2019-02-25T01:45:40.410Z,-1.27
2019-02-25T01:47:40.435Z,-1.19
2019-02-25T01:49:40.031Z,-1.15
2019-02-25T01:51:40.421Z,-1.17
2019-02-25T01:53:40.168Z,-1.15
2019-02-25T01:55:40.121Z,-1.27
2019-02-25T01:57:40.170Z,-1.36
2019-02-25T01:59:40.328Z,-1.31
2019-02-25T02:01:40.319Z,-1.10
2019-02-25T02:03:40.531Z,-1.18
2019-02-25T02:05:40.244Z,-1.07
2019-02-25T02:07:40.352Z,-1.11
2019-02-25T02:09:40.361Z,-1.01
2019-02-25T02:11:40.153Z,-0.97
2019-02-25T02:13:40.193Z,-0.96
2019-02-25T02:15:40.306Z,-0.98
2019-02-25T02:17:40.052Z,-1.12
2019-02-25T02:19:40.322Z,-1.13
2019-02-25T02:21:40.428Z,-1.20
2019-02-25T02:23:40.238Z,-1.25
2019-02-25T02:25:40.456Z,-1.28
2019-02-25T02:27:40.436Z,-1.31
2019-02-25T02:29:40.278Z,-1.34
2019-02-25T02:31:40.223Z,-1.30
2019-02-25T02:33:40.333Z,-1.39
2019-02-25T02:35:40.217Z,-1.49
2019-02-25T02:37:40.065Z,-1.49
2019-02-25T02:39:40.329Z,-1.46
2019-02-25T02:41:40.058Z,-1.42
2019-02-25T02:43:40.358Z,-1.36
2019-02-25T02:45:40.370Z,-1.37
2019-02-25T02:47:40.383Z,-1.32
2019-02-25T02:49:40.286Z,-1.39
2019-02-25T02:51:40.913Z,-1.37
2019-02-25T02:53:40.420Z,-1.11
2019-02-25T02:55:40.233Z,-1.17
2019-02-25T02:57:40.341Z,-1.08
2019-02-25T02:59:40.424Z,-1.07
2019-02-25T03:01:40.396Z,-1.12
2019-02-25T03:03:40.675Z,-1.18
2019-02-25T03:05:40.281Z,-1.27
2019-02-25T03:07:40.168Z,-1.29
2019-02-25T03:09:40.402Z,-1.46
2019-02-25T03:11:40.159Z,-1.41
2019-02-25T03:13:40.430Z,-1.32
2019-02-25T03:15:40.295Z,-1.32
2019-02-25T03:17:40.351Z,-1.27
2019-02-25T03:19:40.359Z,-1.43
2019-02-25T03:21:40.678Z,-1.37
2019-02-25T03:23:40.479Z,-1.60
2019-02-25T03:25:40.701Z,-1.52
2019-02-25T03:27:40.305Z,-1.52
2019-02-25T03:29:40.520Z,-1.65
2019-02-25T03:31:40.534Z,-1.47
2019-02-25T03:33:40.298Z,-1.64
2019-02-25T03:35:40.350Z,-1.50
2019-02-25T03:37:40.260Z,-1.65
2019-02-25T03:39:40.475Z,-1.32
2019-02-25T03:41:40.281Z,-1.58
2019-02-25T03:43:40.148Z,-1.60
2019-02-25T03:45:40.614Z,-1.59
2019-02-25T03:47:40.622Z,-1.50
2019-02-25T03:49:40.536Z,-1.64
2019-02-25T03:51:40.426Z,-1.46
2019-02-25T03:53:40.427Z,-1.61
2019-02-25T03:55:40.205Z,-1.48
2019-02-25T03:57:40.474Z,-1.50
2019-02-25T03:59:40.490Z,-1.30
2019-02-25T04:01:40.297Z,-1.11
2019-02-25T04:03:40.493Z,-1.26
2019-02-25T04:05:40.422Z,-1.06
2019-02-25T04:07:40.536Z,-1.21
2019-02-25T04:09:40.445Z,-1.29
2019-02-25T04:11:40.555Z,-1.42
2019-02-25T04:13:40.374Z,-1.46
2019-02-25T04:15:40.272Z,-1.37
2019-02-25T04:17:40.386Z,-1.38
2019-02-25T04:19:40.498Z,-1.41
2019-02-25T04:21:40.713Z,-1.39
2019-02-25T04:23:40.490Z,-1.44
2019-02-25T04:25:40.329Z,-1.55
2019-02-25T04:27:40.477Z,-1.58
2019-02-25T04:29:40.353Z,-1.69
2019-02-25T04:31:40.365Z,-1.69
2019-02-25T04:33:40.566Z,-1.77
2019-02-25T04:35:40.355Z,-1.69
2019-02-25T04:37:40.355Z,-1.79
2019-02-25T04:39:40.427Z,-1.66
2019-02-25T04:41:40.427Z,-1.67
2019-02-25T04:43:40.641Z,-1.78
2019-02-25T04:45:40.191Z,-1.72
2019-02-25T04:47:43.277Z,-1.85
2019-02-25T04:49:40.467Z,-1.87
2019-02-25T04:51:40.279Z,-1.80
2019-02-25T04:53:40.451Z,-1.82
2019-02-25T04:55:40.482Z,-2.00
2019-02-25T04:57:40.464Z,-1.98
2019-02-25T04:59:40.570Z,-2.04
2019-02-25T05:01:40.279Z,-1.94
2019-02-25T05:03:40.554Z,-1.97
2019-02-25T05:05:40.557Z,-1.81
2019-02-25T05:07:40.378Z,-1.87
2019-02-25T05:09:40.590Z,-1.78
2019-02-25T05:11:40.601Z,-1.72
2019-02-25T05:13:40.403Z,-1.95
2019-02-25T05:15:40.631Z,-1.85
2019-02-25T05:17:40.224Z,-1.87
2019-02-25T05:19:40.546Z,-1.88
2019-02-25T05:21:40.551Z,-1.87
2019-02-25T05:23:40.253Z,-2.05
2019-02-25T05:25:40.321Z,-2.14
2019-02-25T05:27:40.375Z,-1.97
2019-02-25T05:29:40.597Z,-2.16
2019-02-25T05:31:40.413Z,-2.13
2019-02-25T05:33:40.820Z,-2.18
2019-02-25T05:35:40.426Z,-2.19
2019-02-25T05:37:40.229Z,-2.31
2019-02-25T05:39:40.561Z,-2.27
2019-02-25T05:41:40.222Z,-2.05
2019-02-25T05:43:40.472Z,-2.24
2019-02-25T05:45:40.241Z,-2.29
2019-02-25T05:47:40.502Z,-2.17
2019-02-25T05:49:40.436Z,-2.20
2019-02-25T05:51:40.523Z,-2.21
2019-02-25T05:53:40.361Z,-2.02
2019-02-25T05:55:40.858Z,-2.31
2019-02-25T05:57:40.530Z,-2.29
2019-02-25T05:59:40.470Z,-2.20
2019-02-25T06:01:40.370Z,-2.09
2019-02-25T06:03:40.590Z,-2.01
2019-02-25T06:05:40.595Z,-1.98
2019-02-25T06:07:40.311Z,-1.93
2019-02-25T06:09:40.521Z,-1.88
2019-02-25T06:11:40.539Z,-1.87
2019-02-25T06:13:40.339Z,-1.82
2019-02-25T06:15:40.663Z,-1.90
2019-02-25T06:17:40.779Z,-1.74
2019-02-25T06:19:40.488Z,-1.96
2019-02-25T06:21:40.557Z,-1.89
2019-02-25T06:23:40.398Z,-1.89
2019-02-25T06:25:40.409Z,-1.97
2019-02-25T06:27:41.034Z,-1.95
2019-02-25T06:29:40.428Z,-1.98
2019-02-25T06:31:40.549Z,-1.75
2019-02-25T06:33:40.705Z,-1.77
2019-02-25T06:35:40.478Z,-2.01
2019-02-25T06:37:40.988Z,-1.86
2019-02-25T06:39:40.588Z,-1.91
2019-02-25T06:41:40.351Z,-1.93
2019-02-25T06:43:40.360Z,-1.74
2019-02-25T06:45:40.623Z,-1.68
2019-02-25T06:47:40.437Z,-1.74
2019-02-25T06:49:40.652Z,-1.60
2019-02-25T06:51:40.584Z,-1.59
2019-02-25T06:53:40.613Z,-1.56
2019-02-25T06:55:40.892Z,-1.68
2019-02-25T06:57:40.697Z,-1.56
2019-02-25T06:59:40.705Z,-1.56
2019-02-25T07:01:40.614Z,-1.35
2019-02-25T07:03:40.578Z,-0.87
2019-02-25T07:05:40.331Z,-0.52
2019-02-25T07:07:40.347Z,-0.35
2019-02-25T07:09:40.357Z,-0.11
2019-02-25T07:11:40.437Z,0.31
2019-02-25T07:13:40.385Z,0.76
2019-02-25T07:15:40.896Z,1.02
2019-02-25T07:17:40.713Z,1.41
2019-02-25T07:19:40.664Z,2.02
2019-02-25T07:21:40.743Z,2.69
2019-02-25T07:23:40.440Z,3.03
2019-02-25T07:25:40.338Z,3.50
2019-02-25T07:27:41.971Z,3.78
2019-02-25T07:29:40.571Z,4.24
2019-02-25T07:31:40.489Z,4.57
2019-02-25T07:33:40.534Z,5.01
2019-02-25T07:35:40.616Z,5.52
2019-02-25T07:37:40.727Z,6.11
2019-02-25T07:39:40.735Z,6.75
2019-02-25T07:41:40.739Z,7.05
2019-02-25T07:43:40.812Z,7.24
2019-02-25T07:45:40.772Z,7.42
2019-02-25T07:47:40.691Z,7.79
2019-02-25T07:49:40.483Z,7.91
2019-02-25T07:51:40.474Z,7.92
2019-02-25T07:53:40.594Z,8.23
2019-02-25T07:55:40.357Z,8.49
2019-02-25T07:57:40.633Z,8.91
2019-02-25T07:59:40.850Z,8.87
2019-02-25T08:01:40.447Z,8.87
2019-02-25T08:03:40.671Z,8.77
2019-02-25T08:05:40.468Z,8.76
2019-02-25T08:07:40.484Z,8.97
2019-02-25T08:09:40.452Z,9.21
2019-02-25T08:11:40.725Z,9.50
2019-02-25T08:13:40.683Z,9.67
2019-02-25T08:15:40.718Z,9.83
2019-02-25T08:17:40.657Z,10.05
2019-02-25T08:19:40.601Z,10.14
2019-02-25T08:21:40.482Z,10.16
2019-02-25T08:23:40.782Z,10.08
2019-02-25T08:25:40.597Z,10.07
2019-02-25T08:27:40.608Z,10.06
2019-02-25T08:29:40.820Z,9.80
2019-02-25T08:31:40.979Z,9.63
2019-02-25T08:33:40.483Z,9.47
2019-02-25T08:35:40.579Z,9.23
2019-02-25T08:37:40.667Z,8.98
2019-02-25T08:39:40.652Z,8.85
2019-02-25T08:41:40.638Z,9.03
2019-02-25T08:43:40.698Z,9.03
2019-02-25T08:45:40.544Z,9.02
2019-02-25T08:47:40.724Z,9.14
2019-02-25T08:49:40.669Z,9.13
2019-02-25T08:51:40.940Z,9.21
2019-02-25T08:53:40.848Z,9.31
2019-02-25T08:55:40.773Z,9.40
2019-02-25T08:57:40.794Z,9.50
2019-02-25T08:59:40.714Z,9.61
2019-02-25T09:01:40.593Z,9.77
2019-02-25T09:03:40.694Z,9.93
2019-02-25T09:05:40.924Z,10.16
2019-02-25T09:07:42.568Z,10.18
2019-02-25T09:09:40.916Z,10.17
2019-02-25T09:11:40.646Z,10.45
2019-02-25T09:13:41.277Z,11.01
2019-02-25T09:15:40.633Z,11.31
2019-02-25T09:17:40.680Z,11.31
2019-02-25T09:19:40.699Z,11.24
2019-02-25T09:21:40.608Z,11.36
2019-02-25T09:23:40.752Z,11.40
2019-02-25T09:25:40.751Z,11.68
2019-02-25T09:27:40.867Z,11.98
2019-02-25T09:29:41.061Z,12.15
2019-02-25T09:31:40.869Z,12.32
2019-02-25T09:33:41.027Z,12.38
2019-02-25T09:35:40.837Z,12.48
2019-02-25T09:37:40.698Z,12.65
2019-02-25T09:39:40.703Z,12.38
2019-02-25T09:41:40.744Z,12.26
2019-02-25T09:43:40.731Z,12.37
2019-02-25T09:45:40.910Z,12.57
2019-02-25T09:47:40.867Z,12.77
2019-02-25T09:49:40.872Z,12.69
2019-02-25T09:51:40.873Z,12.59
2019-02-25T09:53:40.699Z,12.52
2019-02-25T09:55:40.802Z,12.52
2019-02-25T09:57:40.916Z,12.68
2019-02-25T09:59:41.023Z,12.91
2019-02-25T10:01:40.738Z,12.97
2019-02-25T10:03:40.840Z,13.19
2019-02-25T10:05:40.856Z,13.37
2019-02-25T10:07:40.666Z,13.50
2019-02-25T10:09:40.890Z,13.71
2019-02-25T10:11:41.003Z,13.60
2019-02-25T10:13:40.918Z,13.57
2019-02-25T10:15:40.961Z,13.91
2019-02-25T10:17:40.725Z,14.35
2019-02-25T10:19:40.732Z,14.41
2019-02-25T10:21:40.826Z,14.37
2019-02-25T10:23:40.707Z,14.19
2019-02-25T10:25:40.764Z,14.09
2019-02-25T10:27:40.886Z,13.89
2019-02-25T10:29:40.684Z,13.91
2019-02-25T10:31:41.693Z,14.15
2019-02-25T10:33:40.921Z,14.02
2019-02-25T10:35:40.879Z,14.22
2019-02-25T10:37:41.425Z,14.44
2019-02-25T10:39:41.661Z,14.50
2019-02-25T10:41:41.133Z,14.45
2019-02-25T10:43:40.855Z,14.32
2019-02-25T10:45:41.571Z,14.27
2019-02-25T10:47:42.053Z,14.19
2019-02-25T10:49:40.705Z,14.03
2019-02-25T10:51:41.208Z,14.16
2019-02-25T10:53:40.833Z,14.47
2019-02-25T10:55:44.471Z,14.57
2019-02-25T10:57:40.909Z,14.72
2019-02-25T10:59:41.487Z,14.65
2019-02-25T11:01:41.433Z,14.54
2019-02-25T11:03:40.892Z,14.34
2019-02-25T11:05:41.314Z,14.35
2019-02-25T11:07:42.037Z,14.34
2019-02-25T11:09:41.944Z,14.23
2019-02-25T11:11:40.724Z,14.64
2019-02-25T11:13:41.044Z,14.88
2019-02-25T11:15:42.388Z,14.62
2019-02-25T11:17:40.932Z,14.65
2019-02-25T11:19:41.084Z,14.82
2019-02-25T11:21:42.219Z,14.81
2019-02-25T11:23:42.907Z,14.95
2019-02-25T11:25:40.880Z,14.96
2019-02-25T11:27:41.336Z,15.01
2019-02-25T11:29:42.141Z,14.87
2019-02-25T11:31:41.236Z,14.57
2019-02-25T11:33:40.747Z,14.65
2019-02-25T11:35:41.625Z,14.70
2019-02-25T11:37:40.714Z,14.84
2019-02-25T11:39:40.921Z,14.86
2019-02-25T11:41:41.134Z,14.97
2019-02-25T11:43:40.937Z,15.02
2019-02-25T11:45:40.955Z,14.87
2019-02-25T11:47:41.955Z,14.44
2019-02-25T11:49:41.053Z,14.36
2019-02-25T11:51:40.957Z,14.48
2019-02-25T11:53:40.762Z,14.88
2019-02-25T11:55:40.985Z,15.09
2019-02-25T11:57:40.709Z,14.81
2019-02-25T11:59:41.111Z,14.45
2019-02-25T12:01:40.852Z,14.45
2019-02-25T12:03:41.339Z,14.32
2019-02-25T12:05:40.942Z,14.52
2019-02-25T12:07:40.898Z,14.50
2019-02-25T12:09:41.017Z,14.54
2019-02-25T12:11:40.876Z,14.50
2019-02-25T12:13:41.094Z,14.64
2019-02-25T12:15:40.896Z,14.54
2019-02-25T12:17:40.804Z,14.61
2019-02-25T12:19:40.823Z,14.73
2019-02-25T12:21:42.377Z,14.94
2019-02-25T12:23:40.758Z,15.26
2019-02-25T12:25:40.944Z,15.68
2019-02-25T12:27:41.061Z,16.17
2019-02-25T12:29:41.162Z,16.48
2019-02-25T12:31:40.953Z,16.75
2019-02-25T12:33:41.214Z,16.79
2019-02-25T12:35:41.113Z,17.11
2019-02-25T12:37:41.128Z,17.14
2019-02-25T12:39:41.046Z,17.28
2019-02-25T12:41:43.835Z,17.18
2019-02-25T12:43:41.060Z,16.89
2019-02-25T12:45:41.070Z,16.30
2019-02-25T12:47:41.190Z,16.13
2019-02-25T12:49:40.891Z,16.00
2019-02-25T12:51:41.089Z,15.85
2019-02-25T12:53:41.061Z,15.80
2019-02-25T12:55:41.024Z,15.97
2019-02-25T12:57:41.152Z,15.95
2019-02-25T12:59:41.259Z,15.98
2019-02-25T13:01:41.271Z,15.85
2019-02-25T13:03:41.444Z,15.53
2019-02-25T13:05:41.109Z,15.60
2019-02-25T13:07:41.005Z,15.72
2019-02-25T13:09:41.317Z,15.66
2019-02-25T13:11:41.367Z,15.33
2019-02-25T13:13:41.338Z,15.41
2019-02-25T13:15:41.141Z,15.70
2019-02-25T13:17:41.365Z,15.73
2019-02-25T13:19:41.169Z,16.11
2019-02-25T13:21:41.286Z,16.25
2019-02-25T13:23:41.056Z,16.26
2019-02-25T13:25:41.034Z,16.32
2019-02-25T13:27:41.111Z,16.74
2019-02-25T13:29:41.095Z,16.75
2019-02-25T13:31:41.471Z,16.62
2019-02-25T13:33:41.061Z,16.55
2019-02-25T13:35:40.906Z,16.30
2019-02-25T13:37:40.970Z,16.19
2019-02-25T13:39:41.288Z,16.10
2019-02-25T13:41:41.098Z,16.11
2019-02-25T13:43:41.341Z,16.13
2019-02-25T13:45:41.317Z,16.43
2019-02-25T13:47:41.327Z,16.77
2019-02-25T13:49:40.980Z,16.99
2019-02-25T13:51:40.986Z,16.84
2019-02-25T13:53:41.274Z,16.72
2019-02-25T13:55:41.149Z,16.92
2019-02-25T13:57:41.201Z,16.92
2019-02-25T13:59:41.038Z,17.17
2019-02-25T14:01:41.352Z,17.16
2019-02-25T14:03:41.507Z,17.05
2019-02-25T14:05:41.092Z,16.78
2019-02-25T14:07:41.289Z,16.71
2019-02-25T14:09:41.469Z,16.41
2019-02-25T14:11:41.268Z,16.36
2019-02-25T14:13:41.071Z,16.52
2019-02-25T14:15:41.293Z,16.77
2019-02-25T14:17:41.231Z,16.96
2019-02-25T14:19:41.056Z,17.05
2019-02-25T14:21:41.529Z,17.09
2019-02-25T14:23:41.147Z,17.18
2019-02-25T14:25:41.667Z,17.37
2019-02-25T14:27:41.472Z,17.00
2019-02-25T14:29:41.481Z,16.82
2019-02-25T14:31:41.192Z,16.72
2019-02-25T14:33:41.247Z,16.70
2019-02-25T14:35:41.409Z,16.70
2019-02-25T14:37:41.112Z,16.81
2019-02-25T14:39:43.144Z,16.80
2019-02-25T14:41:41.450Z,16.91
2019-02-25T14:43:46.218Z,17.32
2019-02-25T14:45:42.084Z,17.47
2019-02-25T14:47:42.074Z,17.54
2019-02-25T14:49:42.845Z,17.50
2019-02-25T14:51:41.322Z,17.79
2019-02-25T14:53:42.273Z,17.68
2019-02-25T14:55:42.741Z,17.63
2019-02-25T14:57:43.571Z,17.69
2019-02-25T14:59:41.345Z,17.99
2019-02-25T15:01:41.158Z,18.15
2019-02-25T15:03:41.373Z,18.29
2019-02-25T15:05:41.017Z,18.31
2019-02-25T15:07:42.470Z,18.19
2019-02-25T15:09:43.083Z,18.05
2019-02-25T15:11:41.420Z,17.95
2019-02-25T15:13:41.635Z,17.98
2019-02-25T15:15:43.359Z,17.84
2019-02-25T15:17:42.075Z,17.98
2019-02-25T15:19:42.824Z,18.00
2019-02-25T15:21:43.142Z,18.06
2019-02-25T15:23:41.038Z,18.03
2019-02-25T15:25:43.158Z,18.19
2019-02-25T15:27:41.309Z,18.53
2019-02-25T15:29:42.240Z,18.60
2019-02-25T15:31:41.233Z,18.52
2019-02-25T15:33:42.468Z,18.51
2019-02-25T15:35:41.673Z,18.52
2019-02-25T15:37:44.465Z,18.50
2019-02-25T15:39:42.456Z,18.48
2019-02-25T15:41:44.123Z,18.36
2019-02-25T15:43:41.918Z,18.15
2019-02-25T15:45:42.546Z,18.13
2019-02-25T15:47:42.477Z,18.09
2019-02-25T15:49:41.230Z,17.92
2019-02-25T15:51:43.021Z,17.73
2019-02-25T15:53:42.435Z,17.56
2019-02-25T15:55:41.386Z,17.52
2019-02-25T15:57:41.687Z,17.49
2019-02-25T15:59:41.192Z,17.49
2019-02-25T16:01:41.409Z,17.48
2019-02-25T16:03:43.097Z,17.23
2019-02-25T16:05:41.231Z,17.08
2019-02-25T16:07:41.443Z,16.90
2019-02-25T16:09:41.667Z,16.84
2019-02-25T16:11:43.350Z,16.78
2019-02-25T16:13:41.478Z,16.85
2019-02-25T16:15:41.490Z,17.01
2019-02-25T16:17:41.707Z,17.28
2019-02-25T16:19:47.382Z,17.34
2019-02-25T16:21:41.331Z,17.16
2019-02-25T16:23:42.617Z,16.99
2019-02-25T16:25:41.347Z,16.64
2019-02-25T16:27:42.957Z,16.22
2019-02-25T16:29:41.165Z,15.97
2019-02-25T16:31:41.690Z,15.61
2019-02-25T16:33:41.491Z,15.24
2019-02-25T16:35:41.708Z,15.13
2019-02-25T16:37:42.721Z,14.85
2019-02-25T16:39:41.327Z,14.48
2019-02-25T16:41:41.818Z,14.31
2019-02-25T16:43:41.287Z,14.14
2019-02-25T16:45:43.949Z,13.87
2019-02-25T16:47:41.370Z,13.71
2019-02-25T16:49:41.180Z,13.51
2019-02-25T16:51:41.635Z,13.28
2019-02-25T16:53:43.228Z,13.14
2019-02-25T16:55:42.295Z,13.07
2019-02-25T16:57:42.932Z,12.88
2019-02-25T16:59:41.447Z,12.73
2019-02-25T17:01:41.674Z,12.58
2019-02-25T17:03:41.902Z,12.56
2019-02-25T17:05:42.870Z,12.22
2019-02-25T17:07:42.499Z,12.17
2019-02-25T17:09:42.919Z,11.88
2019-02-25T17:11:42.255Z,11.70
2019-02-25T17:13:41.562Z,11.48
2019-02-25T17:15:41.644Z,11.27
2019-02-25T17:17:41.247Z,11.20
2019-02-25T17:19:41.370Z,11.00
2019-02-25T17:21:43.345Z,10.89
2019-02-25T17:23:41.597Z,10.55
2019-02-25T17:25:43.530Z,10.40
2019-02-25T17:27:41.545Z,10.18
2019-02-25T17:29:41.389Z,10.12
2019-02-25T17:31:41.226Z,9.98
2019-02-25T17:33:42.057Z,9.85
2019-02-25T17:35:43.503Z,9.63
2019-02-25T17:37:41.691Z,9.47
2019-02-25T17:39:41.424Z,9.24
2019-02-25T17:41:42.606Z,9.10
2019-02-25T17:43:43.007Z,8.98
2019-02-25T17:45:41.616Z,8.98
2019-02-25T17:47:41.938Z,8.79
2019-02-25T17:49:42.939Z,8.80
2019-02-25T17:51:41.725Z,8.74
2019-02-25T17:53:43.848Z,8.68
2019-02-25T17:55:41.323Z,8.54
2019-02-25T17:57:41.542Z,8.35
2019-02-25T17:59:43.726Z,8.22
2019-02-25T18:01:42.489Z,8.24
2019-02-25T18:03:42.193Z,7.95
2019-02-25T18:05:43.245Z,7.81
2019-02-25T18:07:42.118Z,7.82
2019-02-25T18:09:42.705Z,7.59
2019-02-25T18:11:43.348Z,7.58
2019-02-25T18:13:41.877Z,7.43
2019-02-25T18:15:41.889Z,7.40
2019-02-25T18:17:42.724Z,7.28
2019-02-25T18:19:45.278Z,7.21
2019-02-25T18:21:43.771Z,7.24
2019-02-25T18:23:41.813Z,7.14
2019-02-25T18:25:41.944Z,7.13
2019-02-25T18:27:43.995Z,6.97
2019-02-25T18:29:43.990Z,6.98
2019-02-25T18:31:41.880Z,6.88
2019-02-25T18:33:42.426Z,6.77
2019-02-25T18:35:43.375Z,6.74
2019-02-25T18:37:43.439Z,6.61
2019-02-25T18:39:43.250Z,6.54
2019-02-25T18:41:41.638Z,6.39
2019-02-25T18:43:42.993Z,6.39
2019-02-25T18:45:43.120Z,6.19
2019-02-25T18:47:41.834Z,6.14
2019-02-25T18:49:41.904Z,6.04
2019-02-25T18:51:44.691Z,5.97
2019-02-25T18:53:42.014Z,6.03
2019-02-25T18:55:43.195Z,5.98
2019-02-25T18:57:43.474Z,5.89
2019-02-25T18:59:41.840Z,5.79
2019-02-25T19:01:43.138Z,5.65
2019-02-25T19:03:41.707Z,5.64
2019-02-25T19:05:41.888Z,5.70
2019-02-25T19:07:41.900Z,5.61
2019-02-25T19:09:42.951Z,5.62
2019-02-25T19:11:42.835Z,5.50
2019-02-25T19:13:41.817Z,5.40
2019-02-25T19:15:41.625Z,5.30
2019-02-25T19:17:41.639Z,5.32
2019-02-25T19:19:42.463Z,5.14
2019-02-25T19:21:41.583Z,5.02
2019-02-25T19:23:42.265Z,5.09
2019-02-25T19:25:41.699Z,5.06
2019-02-25T19:27:41.804Z,5.08
2019-02-25T19:29:45.473Z,4.96
2019-02-25T19:31:42.497Z,4.99
2019-02-25T19:33:41.781Z,4.97
2019-02-25T19:35:41.855Z,4.98
2019-02-25T19:37:42.703Z,4.87
2019-02-25T19:39:43.541Z,4.67
2019-02-25T19:41:45.095Z,4.63
2019-02-25T19:43:41.553Z,4.67
2019-02-25T19:45:43.207Z,4.57
2019-02-25T19:47:43.268Z,4.70
2019-02-25T19:49:43.557Z,4.67
2019-02-25T19:51:43.377Z,4.71
2019-02-25T19:53:43.038Z,4.64
2019-02-25T19:55:43.453Z,4.58
2019-02-25T19:57:42.596Z,4.58
2019-02-25T19:59:43.403Z,4.60
2019-02-25T20:01:41.756Z,4.57
2019-02-25T20:03:42.738Z,4.46
2019-02-25T20:05:43.724Z,4.47
2019-02-25T20:07:41.934Z,4.38
2019-02-25T20:09:41.838Z,4.44
2019-02-25T20:11:42.829Z,4.45
2019-02-25T20:13:43.080Z,4.53
2019-02-25T20:15:42.438Z,4.44
2019-02-25T20:17:43.688Z,4.39
2019-02-25T20:19:43.055Z,4.33
2019-02-25T20:21:41.576Z,4.28
2019-02-25T20:23:41.512Z,4.26
2019-02-25T20:25:44.434Z,4.14
2019-02-25T20:27:41.640Z,4.10
2019-02-25T20:29:42.450Z,4.28
2019-02-25T20:31:41.718Z,4.17
2019-02-25T20:33:41.982Z,4.24
2019-02-25T20:35:44.977Z,4.14
2019-02-25T20:37:41.711Z,4.17
2019-02-25T20:39:42.912Z,4.19
2019-02-25T20:41:43.342Z,4.07
2019-02-25T20:43:41.637Z,3.95
2019-02-25T20:45:41.328Z,3.89
2019-02-25T20:47:41.302Z,3.89
2019-02-25T20:49:41.358Z,3.98
2019-02-25T20:51:43.482Z,3.77
2019-02-25T20:53:41.586Z,3.75
2019-02-25T20:55:41.593Z,3.78
2019-02-25T20:57:41.818Z,3.73
2019-02-25T20:59:41.625Z,3.70
2019-02-25T21:01:43.875Z,3.74
2019-02-25T21:03:45.612Z,3.59
2019-02-25T21:05:42.006Z,3.67
2019-02-25T21:07:41.286Z,3.75
2019-02-25T21:09:42.250Z,3.56
2019-02-25T21:11:41.922Z,3.76
2019-02-25T21:13:41.451Z,3.75
2019-02-25T21:15:42.824Z,3.64
2019-02-25T21:17:41.725Z,3.50
2019-02-25T21:19:43.810Z,3.56
2019-02-25T21:21:41.450Z,3.63
2019-02-25T21:23:41.557Z,3.57
2019-02-25T21:25:41.569Z,3.74
2019-02-25T21:27:41.578Z,3.70
2019-02-25T21:29:41.697Z,3.75
2019-02-25T21:31:43.184Z,3.72
2019-02-25T21:33:44.874Z,3.58
2019-02-25T21:35:41.881Z,3.72
2019-02-25T21:37:45.525Z,3.58
2019-02-25T21:39:42.841Z,3.64
2019-02-25T21:41:43.435Z,3.63
2019-02-25T21:43:43.329Z,3.70
2019-02-25T21:45:41.681Z,3.71
2019-02-25T21:47:41.386Z,3.84
2019-02-25T21:49:41.764Z,3.86
2019-02-25T21:51:42.087Z,3.73
2019-02-25T21:53:41.447Z,3.75
2019-02-25T21:55:41.737Z,3.57
2019-02-25T21:57:41.677Z,3.39
2019-02-25T21:59:41.394Z,3.29
2019-02-25T22:01:41.472Z,3.11
2019-02-25T22:03:45.324Z,3.14
2019-02-25T22:05:41.906Z,3.06
2019-02-25T22:07:41.449Z,3.11
2019-02-25T22:09:43.696Z,3.10
2019-02-25T22:11:41.318Z,3.12
2019-02-25T22:13:41.647Z,2.98
2019-02-25T22:15:42.889Z,2.89
2019-02-25T22:17:43.336Z,2.94
2019-02-25T22:19:43.255Z,2.82
2019-02-25T22:21:41.697Z,2.76
2019-02-25T22:23:41.704Z,2.81
2019-02-25T22:25:41.509Z,2.69
2019-02-25T22:27:43.306Z,2.61
2019-02-25T22:29:43.031Z,2.53
2019-02-25T22:31:42.410Z,2.49
2019-02-25T22:33:41.452Z,2.39
2019-02-25T22:35:47.040Z,2.38
2019-02-25T22:37:44.360Z,2.33
2019-02-25T22:39:41.566Z,2.37
2019-02-25T22:41:44.311Z,2.32
2019-02-25T22:43:43.599Z,2.45
2019-02-25T22:45:42.101Z,2.40
2019-02-25T22:47:41.639Z,2.49
2019-02-25T22:49:41.670Z,2.49
2019-02-25T22:51:41.769Z,2.54
2019-02-25T22:53:41.778Z,2.27
2019-02-25T22:55:42.612Z,2.42
2019-02-25T22:57:43.326Z,2.30
2019-02-25T22:59:41.607Z,2.32
2019-02-25T23:01:41.818Z,2.21
2019-02-25T23:03:43.276Z,2.26
2019-02-25T23:05:43.132Z,2.23
2019-02-25T23:07:44.134Z,2.16
2019-02-25T23:09:43.111Z,2.20
2019-02-25T23:11:42.125Z,2.11
2019-02-25T23:13:43.209Z,2.23
2019-02-25T23:15:44.158Z,2.13
2019-02-25T23:17:42.884Z,2.21
2019-02-25T23:19:43.076Z,2.33
2019-02-25T23:21:41.695Z,2.22
2019-02-25T23:23:41.545Z,2.11
2019-02-25T23:25:41.702Z,2.18
2019-02-25T23:27:41.775Z,2.10
2019-02-25T23:29:41.781Z,2.14
2019-02-25T23:31:45.769Z,2.10
2019-02-25T23:33:42.261Z,1.99
2019-02-25T23:35:44.651Z,2.26
2019-02-25T23:37:45.115Z,2.30
2019-02-25T23:39:43.261Z,2.34
2019-02-25T23:41:43.878Z,2.44
2019-02-25T23:43:42.393Z,2.66
2019-02-25T23:45:42.099Z,2.67
2019-02-25T23:47:41.798Z,2.71
2019-02-25T23:49:43.429Z,2.65
2019-02-25T23:51:43.634Z,2.43
2019-02-25T23:53:42.126Z,2.37
2019-02-25T23:55:45.099Z,2.17
2019-02-25T23:57:41.838Z,2.11
2019-02-25T23:59:42.706Z,2.00
